createdAt,value
2023-12-28T00:03:19.798Z,100565.20
2023-12-28T00:08:25.365Z,100567.22
2023-12-28T00:13:30.685Z,100569.95
2023-12-28T00:18:36.081Z,100542.81
2023-12-28T00:23:41.603Z,100531.39
2023-12-28T00:28:47.209Z,100524.88
2023-12-28T00:33:52.601Z,100517.66
2023-12-28T00:38:58.008Z,100515.60
2023-12-28T00:44:03.461Z,100510.38
2023-12-28T00:49:09.670Z,100504.73
2023-12-28T00:54:15.227Z,100502.99
2023-12-28T00:59:20.624Z,100523.36
2023-12-28T01:04:26.091Z,100540.46
2023-12-28T01:09:33.546Z,100535.92
2023-12-28T01:14:38.892Z,100527.21
2023-12-28T01:19:44.381Z,100527.15
2023-12-28T01:24:50.905Z,100527.25
2023-12-28T01:29:57.186Z,100524.63
2023-12-28T01:35:03.233Z,100514.66
2023-12-28T01:40:10.568Z,100511.83
2023-12-28T01:45:16.023Z,100499.40
2023-12-28T01:50:24.794Z,100492.92
2023-12-28T01:55:31.014Z,100465.34
2023-12-28T02:00:39.335Z,100448.48
2023-12-28T02:05:45.302Z,100426.40
2023-12-28T02:10:50.719Z,100416.45
2023-12-28T02:15:59.878Z,100457.06
2023-12-28T02:21:07.274Z,100475.13
2023-12-28T02:26:12.639Z,100488.30
2023-12-28T02:31:27.326Z,100493.39
2023-12-28T02:36:35.373Z,100489.98
2023-12-28T02:41:41.645Z,100478.93
2023-12-28T02:46:46.983Z,100471.10
2023-12-28T02:51:52.343Z,100472.26
2023-12-28T02:56:57.747Z,100486.79
2023-12-28T03:02:03.099Z,100479.09
2023-12-28T03:07:10.192Z,100470.85
2023-12-28T03:12:17.409Z,100470.98
2023-12-28T03:17:22.856Z,100472.98
2023-12-28T03:22:28.239Z,100464.36
2023-12-28T03:27:33.809Z,100469.90
2023-12-28T03:32:39.362Z,100476.06
2023-12-28T03:37:45.693Z,100474.28
2023-12-28T03:42:51.136Z,100474.73
2023-12-28T03:47:56.766Z,100479.94
2023-12-28T03:53:02.383Z,100478.65
2023-12-28T03:58:07.777Z,100473.09
2023-12-28T04:03:13.245Z,100480.44
2023-12-28T04:08:18.697Z,100474.55
2023-12-28T04:13:24.443Z,100468.73
2023-12-28T04:18:30.106Z,100477.07
2023-12-28T04:23:35.601Z,100497.81
2023-12-28T04:28:41.126Z,100501.85
2023-12-28T04:33:46.509Z,100504.11
2023-12-28T04:38:51.838Z,100510.77
2023-12-28T04:43:57.221Z,100507.30
2023-12-28T04:49:02.650Z,100491.86
2023-12-28T04:54:08.054Z,100490.63
2023-12-28T04:59:13.564Z,100499.65
2023-12-28T05:04:19.073Z,100504.93
2023-12-28T05:09:24.763Z,100513.48
2023-12-28T05:14:30.044Z,100518.89
2023-12-28T05:19:35.555Z,100525.77
2023-12-28T05:24:41.129Z,100530.18
2023-12-28T05:29:46.533Z,100537.50
2023-12-28T05:34:52.101Z,100532.27
2023-12-28T05:39:58.929Z,100541.98
2023-12-28T05:45:04.992Z,100566.66
2023-12-28T05:50:11.203Z,100568.23
2023-12-28T05:55:16.679Z,100575.04
2023-12-28T06:00:22.372Z,100587.09
2023-12-28T06:05:27.792Z,100588.79
2023-12-28T06:10:33.629Z,100588.57
2023-12-28T06:15:38.990Z,100592.53
2023-12-28T06:20:44.441Z,100595.42
2023-12-28T06:25:50.827Z,100595.20
2023-12-28T06:31:01.961Z,100594.10
2023-12-28T06:36:11.966Z,100595.88
2023-12-28T06:41:17.330Z,100585.79
2023-12-28T06:46:22.799Z,100589.80
2023-12-28T06:51:28.153Z,100597.85
2023-12-28T06:56:33.554Z,100590.88
2023-12-28T07:01:38.953Z,100589.70
2023-12-28T07:06:44.373Z,100595.85
2023-12-28T07:11:49.734Z,100604.38
2023-12-28T07:16:55.175Z,100608.37
2023-12-28T07:22:00.600Z,100611.18
2023-12-28T07:27:07.460Z,100615.47
2023-12-28T07:32:13.049Z,100620.66
2023-12-28T07:37:18.661Z,100628.88
2023-12-28T07:42:24.185Z,100633.06
2023-12-28T07:47:30.002Z,100628.41
2023-12-28T07:52:35.348Z,100641.98
2023-12-28T07:57:41.507Z,100649.05
2023-12-28T08:02:46.859Z,100657.87
2023-12-28T08:07:52.238Z,100662.41
2023-12-28T08:12:57.789Z,100664.08
2023-12-28T08:18:03.840Z,100679.30
2023-12-28T08:23:17.446Z,100676.56
2023-12-28T08:28:24.449Z,100686.33
2023-12-28T08:33:30.129Z,100687.47
2023-12-28T08:38:35.783Z,100680.41
2023-12-28T08:43:41.060Z,100680.48
2023-12-28T08:48:46.505Z,100679.83
2023-12-28T08:53:51.962Z,100689.78
2023-12-28T08:58:57.417Z,100691.83
2023-12-28T09:04:02.990Z,100696.12
2023-12-28T09:09:08.671Z,100707.05
2023-12-28T09:14:14.107Z,100712.97
2023-12-28T09:19:19.524Z,100717.73
2023-12-28T09:24:24.945Z,100712.62
2023-12-28T09:29:30.361Z,100704.04
2023-12-28T09:34:35.859Z,100699.92
2023-12-28T09:39:42.658Z,100704.45
2023-12-28T09:44:48.581Z,100696.58
2023-12-28T09:49:54.181Z,100693.33
2023-12-28T09:54:59.596Z,100687.70
2023-12-28T10:00:07.606Z,100682.77
2023-12-28T10:05:15.599Z,100682.96
2023-12-28T10:10:23.284Z,100684.50
2023-12-28T10:15:28.678Z,100680.97
2023-12-28T10:20:34.451Z,100669.37
2023-12-28T10:25:39.802Z,100674.98
2023-12-28T10:30:45.437Z,100676.31
2023-12-28T10:35:53.377Z,100671.81
2023-12-28T10:40:59.360Z,100667.74
2023-12-28T10:46:06.486Z,100675.42
2023-12-28T10:51:14.796Z,100667.19
2023-12-28T10:56:26.229Z,100672.90
2023-12-28T11:01:36.950Z,100672.85
2023-12-28T11:06:45.502Z,100682.61
2023-12-28T11:11:52.475Z,100684.29
2023-12-28T11:16:59.840Z,100682.27
2023-12-28T11:22:06.846Z,100681.21
2023-12-28T11:27:14.004Z,100680.46
2023-12-28T11:32:20.299Z,100675.95
2023-12-28T11:37:27.547Z,100665.90
2023-12-28T11:42:33.132Z,100665.45
2023-12-28T11:47:38.648Z,100657.27
2023-12-28T11:52:50.316Z,100647.95
2023-12-28T11:57:55.769Z,100628.52
2023-12-28T12:03:01.565Z,100615.58
2023-12-28T12:08:11.935Z,100609.19
2023-12-28T12:13:17.697Z,100603.46
2023-12-28T12:18:23.458Z,100600.70
2023-12-28T12:23:28.987Z,100600.56
2023-12-28T12:28:34.574Z,100599.45
2023-12-28T12:33:40.604Z,100604.82
2023-12-28T12:38:46.665Z,100604.68
2023-12-28T12:43:52.187Z,100613.40
2023-12-28T12:49:03.365Z,100597.77
2023-12-28T12:54:10.649Z,100608.48
2023-12-28T12:59:19.508Z,100603.54
2023-12-28T13:04:25.090Z,100605.47
2023-12-28T13:09:30.684Z,100607.80
2023-12-28T13:14:36.029Z,100599.24
2023-12-28T13:19:41.612Z,100601.25
2023-12-28T13:24:47.276Z,100601.89
2023-12-28T13:29:52.662Z,100597.69
2023-12-28T13:35:01.756Z,100598.90
2023-12-28T13:40:10.868Z,100604.46
2023-12-28T13:45:16.360Z,100610.25
2023-12-28T13:50:21.704Z,100621.84
2023-12-28T13:55:29.156Z,100621.56
2023-12-28T14:00:35.337Z,100619.48
2023-12-28T14:05:41.286Z,100613.46
2023-12-28T14:10:46.954Z,100616.48
2023-12-28T14:15:52.326Z,100613.44
2023-12-28T14:20:57.757Z,100620.02
2023-12-28T14:26:05.959Z,100616.71
2023-12-28T14:31:13.238Z,100620.64
2023-12-28T14:36:27.152Z,100621.50
2023-12-28T14:41:32.838Z,100625.68
2023-12-28T14:46:38.398Z,100624.35
2023-12-28T14:51:43.821Z,100624.66
2023-12-28T14:56:54.972Z,100626.73
2023-12-28T15:02:01.372Z,100623.52
2023-12-28T15:07:07.076Z,100617.90
2023-12-28T15:12:13.720Z,100611.14
2023-12-28T15:17:20.121Z,100620.01
2023-12-28T15:22:26.469Z,100616.50
2023-12-28T15:27:31.821Z,100612.71
2023-12-28T15:32:37.897Z,100607.09
2023-12-28T15:37:43.537Z,100598.23
2023-12-28T15:42:49.627Z,100593.63
2023-12-28T15:47:55.807Z,100595.92
2023-12-28T15:53:01.541Z,100600.37
2023-12-28T15:58:07.589Z,100600.48
2023-12-28T16:03:13.402Z,100599.95
2023-12-28T16:08:19.027Z,100594.16
2023-12-28T16:13:24.461Z,100594.52
2023-12-28T16:18:30.950Z,100589.55
2023-12-28T16:23:37.828Z,100594.30
2023-12-28T16:28:44.143Z,100596.97
2023-12-28T16:33:49.898Z,100599.80
2023-12-28T16:38:55.444Z,100596.71
2023-12-28T16:44:01.161Z,100601.80
2023-12-28T16:49:06.648Z,100599.71
2023-12-28T16:54:13.802Z,100604.37
2023-12-28T16:59:19.219Z,100599.80
2023-12-28T17:04:24.848Z,100597.52
2023-12-28T17:09:30.857Z,100599.01
2023-12-28T17:14:37.962Z,100589.39
2023-12-28T17:19:44.566Z,100592.60
2023-12-28T17:25:00.895Z,100584.17
2023-12-28T17:30:09.655Z,100583.39
2023-12-28T17:35:16.800Z,100580.14
2023-12-28T17:40:23.860Z,100583.71
2023-12-28T17:45:35.941Z,100582.75
2023-12-28T17:50:40.653Z,100585.75
2023-12-28T17:55:46.160Z,100585.10
2023-12-28T18:00:52.456Z,100582.36
2023-12-28T18:05:57.996Z,100586.05
2023-12-28T18:11:03.386Z,100586.71
2023-12-28T18:16:10.820Z,100588.00
2023-12-28T18:21:17.157Z,100594.31
2023-12-28T18:26:22.655Z,100594.23
2023-12-28T18:31:28.103Z,100593.12
2023-12-28T18:36:33.588Z,100585.02
2023-12-28T18:41:38.967Z,100587.88
2023-12-28T18:46:45.309Z,100586.58
2023-12-28T18:51:50.642Z,100588.48
2023-12-28T18:56:56.672Z,100585.08
2023-12-28T19:02:03.051Z,100582.59
2023-12-28T19:07:08.584Z,100582.61
2023-12-28T19:12:13.961Z,100574.09
2023-12-28T19:17:19.251Z,100569.35
2023-12-28T19:22:27.249Z,100560.20
2023-12-28T19:27:32.681Z,100556.19
2023-12-28T19:32:38.326Z,100550.78
2023-12-28T19:37:43.761Z,100548.75
2023-12-28T19:42:49.043Z,100543.64
2023-12-28T19:47:54.519Z,100547.73
2023-12-28T19:53:00.081Z,100537.63
2023-12-28T19:58:05.719Z,100532.02
2023-12-28T20:03:11.393Z,100533.91
2023-12-28T20:08:17.574Z,100533.50
2023-12-28T20:13:22.880Z,100534.98
2023-12-28T20:18:28.440Z,100547.27
2023-12-28T20:23:33.941Z,100549.07
2023-12-28T20:28:39.239Z,100547.47
2023-12-28T20:33:44.928Z,100551.83
2023-12-28T20:38:50.534Z,100545.98
2023-12-28T20:43:56.575Z,100543.78
2023-12-28T20:49:02.407Z,100543.20
2023-12-28T20:54:08.890Z,100533.05
2023-12-28T20:59:14.353Z,100526.70
2023-12-28T21:04:19.876Z,100527.05
2023-12-28T21:09:25.418Z,100521.17
2023-12-28T21:14:32.506Z,100517.71
2023-12-28T21:19:47.055Z,100517.86
2023-12-28T21:24:53.810Z,100512.52
2023-12-28T21:29:59.195Z,100510.42
2023-12-28T21:35:05.057Z,100512.30
2023-12-28T21:40:12.278Z,100505.16
2023-12-28T21:45:17.831Z,100503.83
2023-12-28T21:50:23.190Z,100505.48
2023-12-28T21:55:29.676Z,100506.76
2023-12-28T22:00:35.201Z,100502.02
2023-12-28T22:05:42.377Z,100501.48
2023-12-28T22:10:48.045Z,100500.57
2023-12-28T22:16:00.938Z,100497.68
2023-12-28T22:21:06.708Z,100499.40
2023-12-28T22:26:12.205Z,100496.41
2023-12-28T22:31:17.699Z,100495.37
2023-12-28T22:36:23.182Z,100492.58
2023-12-28T22:41:28.500Z,100493.14
2023-12-28T22:46:34.120Z,100491.58
2023-12-28T22:51:39.567Z,100481.42
2023-12-28T22:56:45.128Z,100474.28
2023-12-28T23:01:50.823Z,100465.09
2023-12-28T23:06:56.211Z,100460.14
2023-12-28T23:12:01.775Z,100459.96
2023-12-28T23:17:07.210Z,100456.90
2023-12-28T23:22:12.606Z,100445.96
2023-12-28T23:27:17.928Z,100437.61
2023-12-28T23:32:23.431Z,100433.55
2023-12-28T23:37:28.922Z,100426.17
2023-12-28T23:42:34.374Z,100418.59
2023-12-28T23:47:39.792Z,100409.77
2023-12-28T23:52:45.271Z,100409.73
2023-12-28T23:57:50.670Z,100403.88
